sensor_id;sensor_type;location;lat;lon;timestamp;pressure;altitude;pressure_sealevel;temperature;humidity
22000;BME280;11164;48.818;2.322;2023-05-29T00:02:23;100817.44;;;21.04;31.63
22000;BME280;11164;48.818;2.322;2023-05-29T00:04:48;100817.22;;;21.11;31.58
22000;BME280;11164;48.818;2.322;2023-05-29T00:07:13;100818.00;;;21.06;31.60
22000;BME280;11164;48.818;2.322;2023-05-29T00:09:39;100807.19;;;20.89;31.84
22000;BME280;11164;48.818;2.322;2023-05-29T00:12:05;100819.66;;;20.70;32.57
22000;BME280;11164;48.818;2.322;2023-05-29T00:14:30;100817.66;;;20.97;31.94
22000;BME280;11164;48.818;2.322;2023-05-29T00:16:56;100825.34;;;20.95;31.93
22000;BME280;11164;48.818;2.322;2023-05-29T00:19:22;100822.03;;;20.93;31.94
22000;BME280;11164;48.818;2.322;2023-05-29T00:21:49;100827.22;;;20.57;32.64
22000;BME280;11164;48.818;2.322;2023-05-29T00:24:15;100830.22;;;20.56;32.50
22000;BME280;11164;48.818;2.322;2023-05-29T00:26:42;100837.91;;;20.59;32.49
22000;BME280;11164;48.818;2.322;2023-05-29T00:29:07;100833.81;;;20.61;32.45
22000;BME280;11164;48.818;2.322;2023-05-29T00:31:32;100832.88;;;20.51;32.69
22000;BME280;11164;48.818;2.322;2023-05-29T00:33:57;100810.59;;;20.42;32.63
22000;BME280;11164;48.818;2.322;2023-05-29T00:36:23;100822.00;;;20.56;32.48
22000;BME280;11164;48.818;2.322;2023-05-29T00:38:49;100822.03;;;20.34;33.23
22000;BME280;11164;48.818;2.322;2023-05-29T00:41:15;100828.44;;;20.44;32.86
22000;BME280;11164;48.818;2.322;2023-05-29T00:43:41;100835.59;;;20.51;32.69
22000;BME280;11164;48.818;2.322;2023-05-29T00:46:07;100829.56;;;20.49;32.89
22000;BME280;11164;48.818;2.322;2023-05-29T00:48:33;100818.81;;;20.42;32.79
22000;BME280;11164;48.818;2.322;2023-05-29T00:50:59;100823.31;;;20.53;32.55
22000;BME280;11164;48.818;2.322;2023-05-29T00:53:24;100808.88;;;20.31;32.93
22000;BME280;11164;48.818;2.322;2023-05-29T00:55:50;100811.19;;;20.17;33.23
22000;BME280;11164;48.818;2.322;2023-05-29T00:58:16;100804.66;;;20.23;33.17
22000;BME280;11164;48.818;2.322;2023-05-29T01:00:41;100823.13;;;20.33;32.90
22000;BME280;11164;48.818;2.322;2023-05-29T01:03:08;100807.84;;;20.10;33.26
22000;BME280;11164;48.818;2.322;2023-05-29T01:05:35;100808.59;;;20.05;33.38
22000;BME280;11164;48.818;2.322;2023-05-29T01:08:03;100806.44;;;20.07;33.20
22000;BME280;11164;48.818;2.322;2023-05-29T01:10:29;100810.97;;;19.96;33.32
22000;BME280;11164;48.818;2.322;2023-05-29T01:13:03;100798.28;;;20.12;33.78
22000;BME280;11164;48.818;2.322;2023-05-29T01:15:54;100803.81;;;20.17;35.22
22000;BME280;11164;48.818;2.322;2023-05-29T01:24:03;100808.38;;;19.84;34.00
22000;BME280;11164;48.818;2.322;2023-05-29T01:29:21;100811.66;;;20.09;33.18
22000;BME280;11164;48.818;2.322;2023-05-29T01:31:48;100805.91;;;20.10;33.23
22000;BME280;11164;48.818;2.322;2023-05-29T01:34:14;100803.13;;;20.05;33.20
22000;BME280;11164;48.818;2.322;2023-05-29T01:36:40;100813.31;;;19.65;33.97
22000;BME280;11164;48.818;2.322;2023-05-29T01:39:05;100819.88;;;19.64;33.83
22000;BME280;11164;48.818;2.322;2023-05-29T01:41:32;100824.53;;;19.47;33.98
22000;BME280;11164;48.818;2.322;2023-05-29T01:43:59;100810.31;;;19.67;33.79
22000;BME280;11164;48.818;2.322;2023-05-29T01:46:25;100802.19;;;19.11;34.71
22000;BME280;11164;48.818;2.322;2023-05-29T01:48:51;100812.66;;;19.19;34.77
22000;BME280;11164;48.818;2.322;2023-05-29T01:51:16;100815.13;;;19.38;34.58
22000;BME280;11164;48.818;2.322;2023-05-29T01:53:42;100813.75;;;19.18;34.87
22000;BME280;11164;48.818;2.322;2023-05-29T01:56:08;100804.94;;;19.33;34.38
22000;BME280;11164;48.818;2.322;2023-05-29T01:58:35;100817.28;;;19.36;34.54
22000;BME280;11164;48.818;2.322;2023-05-29T02:01:01;100814.44;;;19.69;33.83
22000;BME280;11164;48.818;2.322;2023-05-29T02:03:28;100806.19;;;19.42;34.51
22000;BME280;11164;48.818;2.322;2023-05-29T02:05:55;100810.53;;;19.43;34.46
22000;BME280;11164;48.818;2.322;2023-05-29T02:08:21;100817.91;;;19.04;35.18
22000;BME280;11164;48.818;2.322;2023-05-29T02:10:46;100811.59;;;19.20;34.64
22000;BME280;11164;48.818;2.322;2023-05-29T02:13:11;100803.09;;;19.17;34.27
22000;BME280;11164;48.818;2.322;2023-05-29T02:15:37;100811.34;;;18.88;35.20
22000;BME280;11164;48.818;2.322;2023-05-29T02:18:02;100805.16;;;18.75;35.59
22000;BME280;11164;48.818;2.322;2023-05-29T02:20:28;100815.28;;;19.09;35.26
22000;BME280;11164;48.818;2.322;2023-05-29T02:22:53;100803.34;;;18.81;35.50
22000;BME280;11164;48.818;2.322;2023-05-29T02:25:18;100814.16;;;18.93;35.01
22000;BME280;11164;48.818;2.322;2023-05-29T02:27:44;100810.63;;;19.09;34.84
22000;BME280;11164;48.818;2.322;2023-05-29T02:30:09;100809.13;;;19.19;34.84
22000;BME280;11164;48.818;2.322;2023-05-29T02:32:35;100811.34;;;19.22;34.49
22000;BME280;11164;48.818;2.322;2023-05-29T02:35:01;100806.78;;;19.27;34.60
22000;BME280;11164;48.818;2.322;2023-05-29T02:37:27;100815.63;;;19.35;34.15
22000;BME280;11164;48.818;2.322;2023-05-29T02:39:53;100815.09;;;18.99;35.02
22000;BME280;11164;48.818;2.322;2023-05-29T02:42:18;100812.13;;;19.00;35.00
22000;BME280;11164;48.818;2.322;2023-05-29T02:44:44;100818.66;;;18.82;35.22
22000;BME280;11164;48.818;2.322;2023-05-29T02:47:09;100822.47;;;18.64;35.54
22000;BME280;11164;48.818;2.322;2023-05-29T02:49:34;100823.16;;;18.43;36.05
22000;BME280;11164;48.818;2.322;2023-05-29T02:51:59;100824.59;;;18.45;35.66
22000;BME280;11164;48.818;2.322;2023-05-29T02:54:25;100820.69;;;18.41;36.03
22000;BME280;11164;48.818;2.322;2023-05-29T02:56:51;100827.75;;;18.54;35.92
22000;BME280;11164;48.818;2.322;2023-05-29T02:59:17;100823.78;;;18.45;36.03
22000;BME280;11164;48.818;2.322;2023-05-29T03:01:42;100836.44;;;18.22;36.33
22000;BME280;11164;48.818;2.322;2023-05-29T03:04:09;100823.94;;;18.26;36.23
22000;BME280;11164;48.818;2.322;2023-05-29T03:06:35;100839.97;;;18.23;36.42
22000;BME280;11164;48.818;2.322;2023-05-29T03:09:02;100836.84;;;18.02;37.06
22000;BME280;11164;48.818;2.322;2023-05-29T03:11:27;100841.16;;;17.86;37.27
22000;BME280;11164;48.818;2.322;2023-05-29T03:13:54;100835.69;;;17.98;36.70
22000;BME280;11164;48.818;2.322;2023-05-29T03:16:19;100836.00;;;18.13;36.45
22000;BME280;11164;48.818;2.322;2023-05-29T03:18:45;100846.59;;;17.98;36.75
22000;BME280;11164;48.818;2.322;2023-05-29T03:21:10;100840.03;;;18.11;36.64
22000;BME280;11164;48.818;2.322;2023-05-29T03:23:35;100842.91;;;17.92;36.79
22000;BME280;11164;48.818;2.322;2023-05-29T03:26:04;100846.53;;;17.81;37.10
22000;BME280;11164;48.818;2.322;2023-05-29T03:28:31;100844.47;;;17.88;36.88
22000;BME280;11164;48.818;2.322;2023-05-29T03:30:56;100840.63;;;17.72;37.34
22000;BME280;11164;48.818;2.322;2023-05-29T03:33:21;100838.84;;;17.42;37.80
22000;BME280;11164;48.818;2.322;2023-05-29T03:35:47;100843.22;;;17.67;37.34
22000;BME280;11164;48.818;2.322;2023-05-29T03:38:12;100839.13;;;17.53;37.63
22000;BME280;11164;48.818;2.322;2023-05-29T03:40:37;100846.53;;;17.69;37.33
22000;BME280;11164;48.818;2.322;2023-05-29T03:43:03;100846.44;;;17.52;37.68
22000;BME280;11164;48.818;2.322;2023-05-29T03:45:28;100855.69;;;17.63;37.57
22000;BME280;11164;48.818;2.322;2023-05-29T03:47:53;100857.53;;;17.86;37.15
22000;BME280;11164;48.818;2.322;2023-05-29T03:50:19;100845.28;;;17.48;37.56
22000;BME280;11164;48.818;2.322;2023-05-29T03:52:44;100855.44;;;17.17;38.04
22000;BME280;11164;48.818;2.322;2023-05-29T03:55:10;100867.28;;;17.23;38.51
22000;BME280;11164;48.818;2.322;2023-05-29T03:57:40;100866.94;;;17.31;38.40
22000;BME280;11164;48.818;2.322;2023-05-29T04:00:07;100862.09;;;17.57;38.02
22000;BME280;11164;48.818;2.322;2023-05-29T04:02:35;100856.63;;;17.45;38.17
22000;BME280;11164;48.818;2.322;2023-05-29T04:05:01;100868.00;;;17.66;37.94
22000;BME280;11164;48.818;2.322;2023-05-29T04:07:26;100860.31;;;17.51;37.63
22000;BME280;11164;48.818;2.322;2023-05-29T04:09:51;100860.16;;;17.45;37.93
22000;BME280;11164;48.818;2.322;2023-05-29T04:12:17;100871.94;;;17.46;38.14
22000;BME280;11164;48.818;2.322;2023-05-29T04:14:42;100879.75;;;17.54;38.13
22000;BME280;11164;48.818;2.322;2023-05-29T04:17:09;100887.06;;;17.89;37.53
22000;BME280;11164;48.818;2.322;2023-05-29T04:19:34;100882.13;;;17.62;37.85
22000;BME280;11164;48.818;2.322;2023-05-29T04:22:00;100882.69;;;17.76;37.96
22000;BME280;11164;48.818;2.322;2023-05-29T04:24:25;100882.34;;;17.61;38.23
22000;BME280;11164;48.818;2.322;2023-05-29T04:26:50;100864.44;;;17.41;38.23
22000;BME280;11164;48.818;2.322;2023-05-29T04:29:16;100882.94;;;17.39;38.43
22000;BME280;11164;48.818;2.322;2023-05-29T04:31:42;100897.53;;;17.69;38.40
22000;BME280;11164;48.818;2.322;2023-05-29T04:34:08;100887.34;;;17.64;37.97
22000;BME280;11164;48.818;2.322;2023-05-29T04:36:34;100895.75;;;17.74;38.04
22000;BME280;11164;48.818;2.322;2023-05-29T04:39:04;100904.38;;;17.71;38.16
22000;BME280;11164;48.818;2.322;2023-05-29T04:41:30;100913.03;;;17.92;38.30
22000;BME280;11164;48.818;2.322;2023-05-29T04:43:57;100909.84;;;17.59;38.56
22000;BME280;11164;48.818;2.322;2023-05-29T04:46:23;100916.09;;;17.13;39.07
22000;BME280;11164;48.818;2.322;2023-05-29T04:48:49;100923.47;;;17.59;38.58
22000;BME280;11164;48.818;2.322;2023-05-29T04:51:18;100917.31;;;17.64;38.44
22000;BME280;11164;48.818;2.322;2023-05-29T04:53:45;100917.91;;;17.54;38.81
22000;BME280;11164;48.818;2.322;2023-05-29T04:56:12;100923.59;;;17.65;38.73
22000;BME280;11164;48.818;2.322;2023-05-29T04:58:37;100929.66;;;17.67;38.66
22000;BME280;11164;48.818;2.322;2023-05-29T05:01:03;100930.38;;;17.62;39.02
22000;BME280;11164;48.818;2.322;2023-05-29T05:03:29;100927.19;;;17.77;38.79
22000;BME280;11164;48.818;2.322;2023-05-29T05:05:56;100922.06;;;17.57;38.86
22000;BME280;11164;48.818;2.322;2023-05-29T05:08:22;100920.03;;;17.99;38.29
22000;BME280;11164;48.818;2.322;2023-05-29T05:10:47;100915.16;;;17.90;38.41
22000;BME280;11164;48.818;2.322;2023-05-29T05:13:12;100937.81;;;17.90;38.83
22000;BME280;11164;48.818;2.322;2023-05-29T05:15:38;100927.09;;;18.12;38.24
22000;BME280;11164;48.818;2.322;2023-05-29T05:18:03;100921.44;;;18.43;37.67
22000;BME280;11164;48.818;2.322;2023-05-29T05:20:28;100931.88;;;18.74;37.45
22000;BME280;11164;48.818;2.322;2023-05-29T05:22:54;100928.38;;;18.62;37.75
22000;BME280;11164;48.818;2.322;2023-05-29T05:25:21;100937.31;;;18.58;37.78
22000;BME280;11164;48.818;2.322;2023-05-29T05:27:46;100935.06;;;18.54;38.30
22000;BME280;11164;48.818;2.322;2023-05-29T05:30:12;100944.44;;;18.59;38.24
22000;BME280;11164;48.818;2.322;2023-05-29T05:32:38;100939.50;;;18.44;38.16
22000;BME280;11164;48.818;2.322;2023-05-29T05:35:03;100943.59;;;18.58;38.02
22000;BME280;11164;48.818;2.322;2023-05-29T05:37:29;100944.41;;;18.06;38.84
22000;BME280;11164;48.818;2.322;2023-05-29T05:39:54;100943.09;;;18.21;38.44
22000;BME280;11164;48.818;2.322;2023-05-29T05:42:20;100942.91;;;18.97;37.24
22000;BME280;11164;48.818;2.322;2023-05-29T05:44:45;100955.06;;;19.52;36.63
22000;BME280;11164;48.818;2.322;2023-05-29T05:47:11;100947.84;;;19.11;37.26
22000;BME280;11164;48.818;2.322;2023-05-29T05:49:36;100955.81;;;19.30;37.11
22000;BME280;11164;48.818;2.322;2023-05-29T05:52:01;100951.25;;;19.19;37.20
22000;BME280;11164;48.818;2.322;2023-05-29T05:54:27;100954.59;;;18.92;37.93
22000;BME280;11164;48.818;2.322;2023-05-29T05:56:52;100956.81;;;19.24;37.27
22000;BME280;11164;48.818;2.322;2023-05-29T05:59:17;100954.66;;;19.26;37.16
22000;BME280;11164;48.818;2.322;2023-05-29T06:01:43;100956.66;;;19.47;36.63
22000;BME280;11164;48.818;2.322;2023-05-29T06:04:08;100960.94;;;19.60;37.01
22000;BME280;11164;48.818;2.322;2023-05-29T06:06:34;100966.88;;;19.74;36.63
22000;BME280;11164;48.818;2.322;2023-05-29T06:08:59;100963.94;;;19.25;37.53
22000;BME280;11164;48.818;2.322;2023-05-29T06:11:25;100958.88;;;19.17;37.37
22000;BME280;11164;48.818;2.322;2023-05-29T06:13:51;100964.09;;;18.89;38.05
22000;BME280;11164;48.818;2.322;2023-05-29T06:16:17;100967.06;;;18.71;38.13
22000;BME280;11164;48.818;2.322;2023-05-29T06:18:43;100960.72;;;18.99;37.79
22000;BME280;11164;48.818;2.322;2023-05-29T06:21:12;100962.41;;;19.00;37.63
22000;BME280;11164;48.818;2.322;2023-05-29T06:23:37;100964.19;;;18.94;37.76
22000;BME280;11164;48.818;2.322;2023-05-29T06:26:03;100976.84;;;19.12;37.47
22000;BME280;11164;48.818;2.322;2023-05-29T06:28:29;100972.34;;;19.74;36.53
22000;BME280;11164;48.818;2.322;2023-05-29T06:30:55;100979.63;;;20.02;36.15
22000;BME280;11164;48.818;2.322;2023-05-29T06:33:20;100971.94;;;19.99;36.32
22000;BME280;11164;48.818;2.322;2023-05-29T06:35:47;100983.56;;;19.90;36.42
22000;BME280;11164;48.818;2.322;2023-05-29T06:38:13;100989.78;;;19.68;36.94
22000;BME280;11164;48.818;2.322;2023-05-29T06:40:39;100981.19;;;19.59;36.97
22000;BME280;11164;48.818;2.322;2023-05-29T06:43:04;100982.59;;;19.28;37.17
22000;BME280;11164;48.818;2.322;2023-05-29T06:45:29;100985.81;;;19.25;37.30
22000;BME280;11164;48.818;2.322;2023-05-29T06:47:55;100997.31;;;19.78;36.45
22000;BME280;11164;48.818;2.322;2023-05-29T06:50:20;100991.25;;;20.10;35.95
22000;BME280;11164;48.818;2.322;2023-05-29T06:52:46;100986.72;;;19.64;36.74
22000;BME280;11164;48.818;2.322;2023-05-29T06:55:11;100992.84;;;19.55;36.84
22000;BME280;11164;48.818;2.322;2023-05-29T06:57:36;100995.09;;;19.41;37.27
22000;BME280;11164;48.818;2.322;2023-05-29T07:00:06;100973.28;;;20.19;36.00
22000;BME280;11164;48.818;2.322;2023-05-29T07:02:32;100992.94;;;19.77;36.64
22000;BME280;11164;48.818;2.322;2023-05-29T07:04:58;100990.38;;;20.09;36.19
22000;BME280;11164;48.818;2.322;2023-05-29T07:07:23;100989.97;;;20.39;35.70
22000;BME280;11164;48.818;2.322;2023-05-29T07:09:48;100990.63;;;20.08;36.36
22000;BME280;11164;48.818;2.322;2023-05-29T07:12:14;100989.59;;;19.92;36.38
22000;BME280;11164;48.818;2.322;2023-05-29T07:14:39;100995.56;;;20.28;35.93
22000;BME280;11164;48.818;2.322;2023-05-29T07:17:05;100983.94;;;20.37;35.50
22000;BME280;11164;48.818;2.322;2023-05-29T07:19:31;100989.91;;;20.34;35.83
22000;BME280;11164;48.818;2.322;2023-05-29T07:21:59;100971.06;;;20.38;35.74
22000;BME280;11164;48.818;2.322;2023-05-29T07:24:24;100996.28;;;20.40;35.66
22000;BME280;11164;48.818;2.322;2023-05-29T07:26:49;100993.97;;;20.32;35.72
22000;BME280;11164;48.818;2.322;2023-05-29T07:29:15;100992.25;;;20.70;35.25
22000;BME280;11164;48.818;2.322;2023-05-29T07:31:43;100995.19;;;20.19;36.10
22000;BME280;11164;48.818;2.322;2023-05-29T07:34:08;101004.31;;;20.69;35.22
22000;BME280;11164;48.818;2.322;2023-05-29T07:36:35;100997.75;;;20.25;35.84
22000;BME280;11164;48.818;2.322;2023-05-29T07:39:01;100997.44;;;20.22;35.71
22000;BME280;11164;48.818;2.322;2023-05-29T07:41:26;100998.78;;;20.64;35.27
22000;BME280;11164;48.818;2.322;2023-05-29T07:43:52;101008.69;;;21.19;34.56
22000;BME280;11164;48.818;2.322;2023-05-29T07:46:18;101002.31;;;20.86;35.08
22000;BME280;11164;48.818;2.322;2023-05-29T07:48:43;100998.63;;;20.75;35.06
22000;BME280;11164;48.818;2.322;2023-05-29T07:51:11;101004.44;;;20.79;35.14
22000;BME280;11164;48.818;2.322;2023-05-29T07:53:36;101003.91;;;20.82;34.96
22000;BME280;11164;48.818;2.322;2023-05-29T07:56:01;101002.63;;;20.90;34.76
22000;BME280;11164;48.818;2.322;2023-05-29T07:58:27;101008.00;;;20.79;35.15
22000;BME280;11164;48.818;2.322;2023-05-29T08:00:52;101003.44;;;20.90;34.90
22000;BME280;11164;48.818;2.322;2023-05-29T08:03:18;100992.38;;;21.07;34.58
22000;BME280;11164;48.818;2.322;2023-05-29T08:05:43;101000.00;;;21.65;33.80
22000;BME280;11164;48.818;2.322;2023-05-29T08:08:09;100999.16;;;21.27;34.45
22000;BME280;11164;48.818;2.322;2023-05-29T08:10:37;100995.16;;;21.40;34.53
22000;BME280;11164;48.818;2.322;2023-05-29T08:13:02;100993.72;;;21.64;33.84
22000;BME280;11164;48.818;2.322;2023-05-29T08:15:28;100995.09;;;21.34;34.44
22000;BME280;11164;48.818;2.322;2023-05-29T08:17:53;100987.13;;;21.28;34.58
22000;BME280;11164;48.818;2.322;2023-05-29T08:20:18;100989.25;;;21.58;34.16
22000;BME280;11164;48.818;2.322;2023-05-29T08:22:44;101001.31;;;21.52;34.08
22000;BME280;11164;48.818;2.322;2023-05-29T08:25:10;100998.13;;;21.70;33.68
22000;BME280;11164;48.818;2.322;2023-05-29T08:27:35;101005.03;;;21.73;33.91
22000;BME280;11164;48.818;2.322;2023-05-29T08:30:01;101003.25;;;21.24;34.55
22000;BME280;11164;48.818;2.322;2023-05-29T08:32:27;101001.78;;;21.44;34.28
22000;BME280;11164;48.818;2.322;2023-05-29T08:34:52;101008.31;;;21.75;33.78
22000;BME280;11164;48.818;2.322;2023-05-29T08:37:19;101016.75;;;22.01;33.46
22000;BME280;11164;48.818;2.322;2023-05-29T08:39:44;101015.53;;;22.29;32.99
22000;BME280;11164;48.818;2.322;2023-05-29T08:42:13;101006.81;;;21.95;33.63
22000;BME280;11164;48.818;2.322;2023-05-29T08:44:46;101014.38;;;21.77;33.72
22000;BME280;11164;48.818;2.322;2023-05-29T08:47:14;101011.28;;;22.06;33.36
22000;BME280;11164;48.818;2.322;2023-05-29T08:49:51;100999.63;;;21.93;33.65
22000;BME280;11164;48.818;2.322;2023-05-29T08:52:19;101007.06;;;21.93;33.34
22000;BME280;11164;48.818;2.322;2023-05-29T08:54:45;101010.63;;;21.88;33.38
22000;BME280;11164;48.818;2.322;2023-05-29T08:57:11;101002.03;;;22.22;33.32
22000;BME280;11164;48.818;2.322;2023-05-29T08:59:40;101004.47;;;22.82;32.54
22000;BME280;11164;48.818;2.322;2023-05-29T09:02:07;101002.13;;;22.43;32.75
22000;BME280;11164;48.818;2.322;2023-05-29T09:04:32;101007.88;;;21.93;33.36
22000;BME280;11164;48.818;2.322;2023-05-29T09:06:59;101003.25;;;21.94;33.41
22000;BME280;11164;48.818;2.322;2023-05-29T09:09:25;101007.09;;;22.46;32.49
22000;BME280;11164;48.818;2.322;2023-05-29T09:11:52;101001.63;;;22.51;32.60
22000;BME280;11164;48.818;2.322;2023-05-29T09:14:43;101010.22;;;22.80;32.16
22000;BME280;11164;48.818;2.322;2023-05-29T09:17:10;101008.97;;;22.40;33.19
22000;BME280;11164;48.818;2.322;2023-05-29T09:19:36;101008.88;;;22.78;32.26
22000;BME280;11164;48.818;2.322;2023-05-29T09:22:05;101013.28;;;22.79;32.21
22000;BME280;11164;48.818;2.322;2023-05-29T09:24:32;101008.09;;;23.03;31.76
22000;BME280;11164;48.818;2.322;2023-05-29T09:27:01;101005.03;;;22.94;31.91
22000;BME280;11164;48.818;2.322;2023-05-29T09:29:46;101019.09;;;23.13;31.19
22000;BME280;11164;48.818;2.322;2023-05-29T09:32:20;101012.81;;;23.49;31.27
22000;BME280;11164;48.818;2.322;2023-05-29T09:34:47;101013.91;;;23.48;31.55
22000;BME280;11164;48.818;2.322;2023-05-29T09:37:13;101019.66;;;23.10;32.10
22000;BME280;11164;48.818;2.322;2023-05-29T09:42:07;101007.00;;;23.19;31.94
22000;BME280;11164;48.818;2.322;2023-05-29T09:44:32;101008.13;;;23.44;31.72
22000;BME280;11164;48.818;2.322;2023-05-29T09:46:59;101003.72;;;23.58;31.03
22000;BME280;11164;48.818;2.322;2023-05-29T09:49:25;101005.38;;;23.39;31.25
22000;BME280;11164;48.818;2.322;2023-05-29T09:51:53;101013.06;;;23.83;31.05
22000;BME280;11164;48.818;2.322;2023-05-29T09:54:19;101012.22;;;23.77;30.77
22000;BME280;11164;48.818;2.322;2023-05-29T09:56:45;101013.63;;;23.75;30.84
22000;BME280;11164;48.818;2.322;2023-05-29T09:59:12;101011.44;;;23.31;31.40
22000;BME280;11164;48.818;2.322;2023-05-29T10:01:40;101011.72;;;23.55;31.05
22000;BME280;11164;48.818;2.322;2023-05-29T10:04:07;101003.19;;;23.51;31.32
22000;BME280;11164;48.818;2.322;2023-05-29T10:06:34;101007.88;;;23.30;31.27
22000;BME280;11164;48.818;2.322;2023-05-29T10:09:01;101004.84;;;23.63;30.84
22000;BME280;11164;48.818;2.322;2023-05-29T10:11:28;101008.69;;;23.41;31.11
22000;BME280;11164;48.818;2.322;2023-05-29T10:13:57;101005.66;;;23.32;31.65
22000;BME280;11164;48.818;2.322;2023-05-29T10:16:23;100997.66;;;23.51;30.92
22000;BME280;11164;48.818;2.322;2023-05-29T10:18:56;101008.66;;;23.67;29.86
22000;BME280;11164;48.818;2.322;2023-05-29T10:21:24;100987.44;;;23.88;30.20
22000;BME280;11164;48.818;2.322;2023-05-29T10:23:52;101006.38;;;24.25;30.16
22000;BME280;11164;48.818;2.322;2023-05-29T10:26:21;100990.41;;;24.12;30.24
22000;BME280;11164;48.818;2.322;2023-05-29T10:28:55;100996.78;;;24.07;29.73
22000;BME280;11164;48.818;2.322;2023-05-29T10:31:33;100989.38;;;23.92;29.91
22000;BME280;11164;48.818;2.322;2023-05-29T10:37:04;100978.41;;;23.61;30.82
22000;BME280;11164;48.818;2.322;2023-05-29T10:39:31;100986.63;;;23.92;30.36
22000;BME280;11164;48.818;2.322;2023-05-29T10:41:56;100966.25;;;23.98;30.54
22000;BME280;11164;48.818;2.322;2023-05-29T10:47:03;100985.13;;;24.26;30.56
22000;BME280;11164;48.818;2.322;2023-05-29T10:49:29;100976.22;;;24.49;30.26
22000;BME280;11164;48.818;2.322;2023-05-29T10:51:57;100982.44;;;24.05;30.33
22000;BME280;11164;48.818;2.322;2023-05-29T10:54:24;100981.34;;;24.11;30.40
22000;BME280;11164;48.818;2.322;2023-05-29T10:56:56;100987.31;;;24.34;30.41
22000;BME280;11164;48.818;2.322;2023-05-29T10:59:22;100977.06;;;24.45;30.34
22000;BME280;11164;48.818;2.322;2023-05-29T11:01:52;100966.38;;;24.33;30.01
22000;BME280;11164;48.818;2.322;2023-05-29T11:06:47;100977.75;;;24.16;30.33
22000;BME280;11164;48.818;2.322;2023-05-29T11:09:32;100975.38;;;23.63;30.97
22000;BME280;11164;48.818;2.322;2023-05-29T11:14:56;100966.47;;;24.17;29.73
22000;BME280;11164;48.818;2.322;2023-05-29T11:20:17;100960.63;;;24.19;29.90
22000;BME280;11164;48.818;2.322;2023-05-29T11:22:53;100972.94;;;24.47;30.05
22000;BME280;11164;48.818;2.322;2023-05-29T11:25:21;100981.19;;;24.47;30.05
22000;BME280;11164;48.818;2.322;2023-05-29T11:27:47;100963.88;;;24.31;30.50
22000;BME280;11164;48.818;2.322;2023-05-29T11:30:12;100969.66;;;24.40;30.13
22000;BME280;11164;48.818;2.322;2023-05-29T11:32:39;100975.34;;;23.84;30.58
22000;BME280;11164;48.818;2.322;2023-05-29T11:35:09;100972.69;;;24.44;29.93
22000;BME280;11164;48.818;2.322;2023-05-29T11:37:35;100956.06;;;23.99;30.81
22000;BME280;11164;48.818;2.322;2023-05-29T11:40:04;100963.25;;;24.50;29.89
22000;BME280;11164;48.818;2.322;2023-05-29T11:42:31;100963.09;;;24.81;29.46
22000;BME280;11164;48.818;2.322;2023-05-29T11:45:10;100963.88;;;24.31;30.17
22000;BME280;11164;48.818;2.322;2023-05-29T11:50:20;100959.06;;;24.68;29.60
22000;BME280;11164;48.818;2.322;2023-05-29T11:52:46;100951.13;;;24.56;29.88
22000;BME280;11164;48.818;2.322;2023-05-29T11:55:12;100960.47;;;24.60;29.86
22000;BME280;11164;48.818;2.322;2023-05-29T11:57:37;100956.25;;;24.73;29.42
22000;BME280;11164;48.818;2.322;2023-05-29T12:00:03;100949.69;;;25.03;29.26
22000;BME280;11164;48.818;2.322;2023-05-29T12:02:36;100948.97;;;24.92;29.28
22000;BME280;11164;48.818;2.322;2023-05-29T12:05:05;100957.94;;;25.08;29.09
22000;BME280;11164;48.818;2.322;2023-05-29T12:07:35;100959.72;;;25.58;28.75
22000;BME280;11164;48.818;2.322;2023-05-29T12:10:13;100956.63;;;25.64;28.07
22000;BME280;11164;48.818;2.322;2023-05-29T12:12:39;100944.75;;;25.64;28.52
22000;BME280;11164;48.818;2.322;2023-05-29T12:15:09;100944.13;;;25.72;28.48
22000;BME280;11164;48.818;2.322;2023-05-29T12:17:35;100945.03;;;25.92;28.20
22000;BME280;11164;48.818;2.322;2023-05-29T12:20:03;100943.88;;;26.17;28.28
22000;BME280;11164;48.818;2.322;2023-05-29T12:22:36;100951.78;;;25.51;28.05
22000;BME280;11164;48.818;2.322;2023-05-29T12:25:20;100943.06;;;25.68;27.70
22000;BME280;11164;48.818;2.322;2023-05-29T12:27:47;100949.03;;;26.04;28.09
22000;BME280;11164;48.818;2.322;2023-05-29T12:32:44;100946.50;;;26.89;27.14
22000;BME280;11164;48.818;2.322;2023-05-29T12:35:20;100945.19;;;26.68;26.36
22000;BME280;11164;48.818;2.322;2023-05-29T12:37:46;100938.94;;;26.38;28.14
22000;BME280;11164;48.818;2.322;2023-05-29T12:40:17;100939.72;;;27.01;26.59
22000;BME280;11164;48.818;2.322;2023-05-29T12:42:44;100959.41;;;27.32;26.70
22000;BME280;11164;48.818;2.322;2023-05-29T12:45:10;100945.56;;;27.46;26.38
22000;BME280;11164;48.818;2.322;2023-05-29T12:47:36;100932.91;;;27.26;26.57
22000;BME280;11164;48.818;2.322;2023-05-29T12:50:21;100944.34;;;26.48;25.52
22000;BME280;11164;48.818;2.322;2023-05-29T12:53:03;100940.53;;;26.82;26.16
22000;BME280;11164;48.818;2.322;2023-05-29T12:55:30;100939.66;;;26.25;27.39
22000;BME280;11164;48.818;2.322;2023-05-29T12:57:58;100927.59;;;26.39;26.86
22000;BME280;11164;48.818;2.322;2023-05-29T13:00:24;100944.31;;;26.86;26.40
22000;BME280;11164;48.818;2.322;2023-05-29T13:02:50;100934.78;;;26.59;26.46
22000;BME280;11164;48.818;2.322;2023-05-29T13:05:16;100940.09;;;27.27;25.61
22000;BME280;11164;48.818;2.322;2023-05-29T13:07:44;100940.84;;;27.46;25.79
22000;BME280;11164;48.818;2.322;2023-05-29T13:10:10;100937.75;;;28.08;25.35
22000;BME280;11164;48.818;2.322;2023-05-29T13:12:35;100935.97;;;27.57;25.60
22000;BME280;11164;48.818;2.322;2023-05-29T13:15:01;100943.38;;;27.89;25.22
22000;BME280;11164;48.818;2.322;2023-05-29T13:17:26;100932.56;;;28.43;24.62
22000;BME280;11164;48.818;2.322;2023-05-29T13:19:52;100939.06;;;28.25;25.01